Time;durP1;ratioP1;P1;durP2;ratioP2;P2;SDS_P1;SDS_P2;PMS_P1;PMS_P2;Temp;Humidity;BMP_temperature;BMP_pressure;BME280_temperature;BME280_humidity;BME280_pressure;Samples;Min_cycle;Max_cycle;Signal;HPM_P1;HPM_P2
2021/03/20 00:01:18;;;;;;;21.75;10.80;;;;;;;0.47;72.19;98028.41;5052215;28;20509;-75
2021/03/20 00:03:44;;;;;;;21.17;11.63;;;;;;;0.44;72.92;98023.47;5052975;28;20060;-76
2021/03/20 00:06:12;;;;;;;15.75;9.57;;;;;;;0.33;73.45;98031.50;5055366;28;20036;-76
2021/03/20 00:08:40;;;;;;;17.05;9.48;;;;;;;0.37;73.51;98032.72;5055018;28;20021;-76
2021/03/20 00:11:06;;;;;;;20.05;10.50;;;;;;;0.32;73.84;98029.84;5053083;28;20033;-76
2021/03/20 00:13:32;;;;;;;15.00;10.23;;;;;;;0.29;73.87;98030.31;5052483;28;20120;-75
2021/03/20 00:15:58;;;;;;;22.10;10.02;;;;;;;0.23;73.72;98020.47;5053105;28;20045;-75
2021/03/20 00:18:26;;;;;;;18.10;10.32;;;;;;;0.26;73.88;98028.09;5051985;28;20021;-75
2021/03/20 00:20:52;;;;;;;16.42;9.70;;;;;;;0.34;73.48;98025.09;5052097;28;20021;-76
2021/03/20 00:23:18;;;;;;;20.27;10.80;;;;;;;0.41;73.33;98031.19;5051655;28;20025;-76
2021/03/20 00:25:44;;;;;;;23.92;11.63;;;;;;;0.51;72.77;98026.06;5050268;28;20024;-75
2021/03/20 00:28:12;;;;;;;20.27;10.18;;;;;;;0.27;73.40;98027.03;5052478;28;20108;-76
2021/03/20 00:30:39;;;;;;;17.75;10.65;;;;;;;0.15;73.37;98029.69;5051345;28;20079;-76
2021/03/20 00:33:05;;;;;;;20.95;10.75;;;;;;;-0.06;73.14;98025.59;5047436;28;20033;-75
2021/03/20 00:35:31;;;;;;;20.27;9.93;;;;;;;-0.17;73.36;98021.00;5040317;28;20025;-76
2021/03/20 00:37:59;;;;;;;19.95;9.27;;;;;;;-0.13;73.94;98027.56;5037891;28;20041;-75
2021/03/20 00:40:28;;;;;;;19.92;11.10;;;;;;;-0.18;73.96;98018.53;5034686;28;20597;-76
2021/03/20 00:42:54;;;;;;;18.95;11.10;;;;;;;0.06;73.42;98024.84;5052291;28;20354;-75
2021/03/20 00:45:20;;;;;;;17.15;10.60;;;;;;;0.16;73.02;98030.53;5045172;28;20432;-75
2021/03/20 00:47:46;;;;;;;21.55;14.25;;;;;;;-0.01;73.15;98030.31;5040036;28;20037;-74
2021/03/20 00:50:14;;;;;;;21.80;13.63;;;;;;;-0.18;74.27;98030.09;5033268;28;20034;-75
2021/03/20 00:52:40;;;;;;;23.65;11.50;;;;;;;-0.30;75.10;98029.22;5035806;28;20031;-74
2021/03/20 00:55:07;;;;;;;19.15;12.90;;;;;;;-0.26;75.37;98030.41;5052985;28;20110;-76
2021/03/20 00:57:33;;;;;;;23.23;12.23;;;;;;;-0.25;75.61;98018.59;5046966;28;20040;-75
2021/03/20 00:59:58;;;;;;;23.70;12.73;;;;;;;-0.25;75.87;98021.28;5037786;28;20033;-75
2021/03/20 01:02:23;;;;;;;24.92;13.73;;;;;;;-0.33;76.41;98015.41;5036350;28;20021;-74
2021/03/20 01:04:49;;;;;;;27.33;12.43;;;;;;;-0.43;77.31;98021.28;5035493;28;20534;-75
2021/03/20 01:07:14;;;;;;;27.10;13.63;;;;;;;-0.47;77.77;98022.00;5050631;28;20151;-76
2021/03/20 01:09:40;;;;;;;22.85;12.77;;;;;;;-0.44;77.86;98013.47;5051931;28;20029;-75
2021/03/20 01:12:05;;;;;;;21.33;13.02;;;;;;;-0.36;77.57;98005.09;5039822;28;20394;-75
2021/03/20 01:14:31;;;;;;;19.25;10.57;;;;;;;-0.19;77.09;98012.31;5031912;28;20103;-76
2021/03/20 01:16:56;;;;;;;;;;;;;;;-0.06;76.27;98012.16;5031743;28;20481;-75
2021/03/20 01:19:22;;;;;;;22.88;13.57;;;;;;;-0.18;76.57;98013.97;5029868;28;19924;-74
2021/03/20 01:21:47;;;;;;;;;;;;;;;-0.13;76.58;98016.81;5031618;28;20072;-75
2021/03/20 01:24:13;;;;;;;24.88;12.15;;;;;;;0.10;75.96;98009.88;5031376;28;19917;-74
2021/03/20 01:26:38;;;;;;;19.50;11.43;;;;;;;0.18;75.98;98006.91;5031034;28;20009;-75
2021/03/20 01:29:03;;;;;;;;;;;;;;;0.04;76.32;98011.63;5030968;28;20235;-76
2021/03/20 01:31:29;;;;;;;22.08;10.85;;;;;;;-0.14;77.05;98012.50;5030526;28;20016;-75
2021/03/20 01:33:54;;;;;;;22.63;10.93;;;;;;;-0.06;76.89;98014.03;5031811;28;20036;-75
2021/03/20 01:36:20;;;;;;;23.90;11.93;;;;;;;-0.27;77.90;98004.59;5044460;28;20028;-75
2021/03/20 01:38:45;;;;;;;16.90;10.15;;;;;;;-0.33;78.17;98005.47;5030443;28;20049;-76
2021/03/20 01:41:12;;;;;;;18.30;9.82;;;;;;;-0.49;78.31;98011.44;5034394;28;20041;-75
2021/03/20 01:43:38;;;;;;;18.75;9.90;;;;;;;-0.46;78.29;98002.94;5048916;28;20017;-74
2021/03/20 01:46:43;;;;;;;15.23;8.27;;;;;;;-0.38;78.04;98002.66;5050698;28;20404;-75
2021/03/20 01:49:11;;;;;;;16.70;8.23;;;;;;;-0.39;77.68;98006.38;5041701;28;20049;-74
2021/03/20 01:51:37;;;;;;;15.80;8.20;;;;;;;-0.23;77.31;97997.72;5030479;28;20429;-75
2021/03/20 01:54:03;;;;;;;16.23;10.60;;;;;;;-0.23;77.06;98000.41;5030431;28;20060;-74
2021/03/20 01:56:55;;;;;;;15.13;9.38;;;;;;;-0.43;77.84;97994.44;5030236;28;20033;-75
2021/03/20 01:59:22;;;;;;;15.32;8.77;;;;;;;-0.51;78.59;97994.75;5034981;28;20041;-76
2021/03/20 02:01:47;;;;;;;14.68;9.98;;;;;;;-0.51;78.75;97993.91;5049742;28;20364;-75
2021/03/20 02:04:13;;;;;;;20.38;9.65;;;;;;;-0.44;78.67;97995.50;5049834;28;20059;-76
2021/03/20 02:06:38;;;;;;;18.95;8.10;;;;;;;-0.35;78.23;97996.00;5049827;28;20025;-76
2021/03/20 02:09:06;;;;;;;;;;;;;;;-0.30;78.27;97996.97;5050398;28;20025;-75
2021/03/20 02:11:34;;;;;;;17.45;9.35;;;;;;;-0.39;78.28;97995.63;5049996;28;19919;-74
2021/03/20 02:14:07;;;;;;;17.40;10.85;;;;;;;-0.47;78.81;98003.97;5053925;28;20039;-76
2021/03/20 02:16:42;;;;;;;13.82;9.63;;;;;;;-0.56;79.47;97999.94;5054394;28;20060;-75
2021/03/20 02:19:13;;;;;;;16.33;10.32;;;;;;;-0.61;79.68;98002.50;5054721;28;20021;-75
2021/03/20 02:21:56;;;;;;;19.23;9.63;;;;;;;-0.70;80.29;97995.78;5050731;28;20103;-75
2021/03/20 02:24:54;;;;;;;22.05;11.05;;;;;;;-0.64;80.17;98000.25;5049063;28;20496;-76
2021/03/20 02:27:44;;;;;;;16.45;9.98;;;;;;;-0.52;79.26;97997.66;5033734;28;20116;-75
2021/03/20 02:30:32;;;;;;;19.85;10.32;;;;;;;-0.62;79.32;97990.09;5038418;28;20033;-75
2021/03/20 02:33:20;;;;;;;23.13;11.45;;;;;;;-0.82;79.47;97994.88;5051907;28;20033;-74
2021/03/20 02:36:09;;;;;;;23.25;10.43;;;;;;;-0.76;79.14;97997.50;5053329;28;20382;-74
2021/03/20 02:38:52;;;;;;;23.23;13.18;;;;;;;-0.92;79.11;97995.38;5049409;28;20155;-75
2021/03/20 02:41:44;;;;;;;20.13;13.15;;;;;;;-1.01;79.67;97995.88;5033237;28;20061;-75
2021/03/20 02:44:21;;;;;;;21.85;12.40;;;;;;;-0.96;79.89;97996.03;5033009;28;20022;-74
2021/03/20 02:47:04;;;;;;;29.65;13.00;;;;;;;-1.02;79.87;97994.22;5033782;28;20033;-75
2021/03/20 02:49:54;;;;;;;21.00;11.05;;;;;;;-0.84;79.35;97994.25;5033339;28;20072;-74
2021/03/20 02:52:45;;;;;;;20.08;13.10;;;;;;;-0.86;79.14;97991.00;5033115;28;20025;-75
2021/03/20 02:55:15;;;;;;;21.02;12.05;;;;;;;-0.87;79.17;98002.75;5033122;28;20494;-74
2021/03/20 02:58:12;;;;;;;20.42;10.85;;;;;;;-0.78;79.07;98001.41;5032971;28;20036;-75
2021/03/20 03:00:44;;;;;;;19.63;11.65;;;;;;;-0.78;78.97;98001.41;5032017;28;20041;-75
2021/03/20 03:03:13;;;;;;;16.35;10.77;;;;;;;-0.80;79.16;98003.53;5032989;28;20030;-75
2021/03/20 03:05:45;;;;;;;23.77;12.45;;;;;;;-0.86;79.38;98004.41;5032840;28;20065;-74
2021/03/20 03:08:26;;;;;;;20.52;11.80;;;;;;;-0.95;80.00;98000.38;5032639;28;20061;-74
2021/03/20 03:11:00;;;;;;;32.08;13.73;;;;;;;-1.01;80.50;98007.44;5032607;28;20401;-75
2021/03/20 03:13:31;;;;;;;37.58;15.52;;;;;;;-1.01;80.30;98001.25;5032661;28;20393;-75
2021/03/20 03:16:29;;;;;;;23.90;13.98;;;;;;;-1.01;80.08;98010.13;5031716;28;20025;-75
2021/03/20 03:19:01;;;;;;;18.35;12.60;;;;;;;-1.10;80.48;98011.47;5031899;28;20045;-74
2021/03/20 03:21:31;;;;;;;25.42;12.80;;;;;;;-1.19;81.02;98016.25;5032480;28;20033;-75
2021/03/20 03:23:56;;;;;;;20.95;12.10;;;;;;;-1.11;80.91;98012.47;5047718;28;20029;-74
2021/03/20 03:26:38;;;;;;;27.65;13.93;;;;;;;-1.17;80.97;98016.03;5052406;28;20465;-74
2021/03/20 03:29:10;;;;;;;21.95;12.07;;;;;;;-1.23;81.20;98022.28;5034584;28;20120;-74
2021/03/20 03:31:42;;;;;;;19.38;11.15;;;;;;;-1.23;81.43;98014.25;5049424;28;20075;-74
2021/03/20 03:34:17;;;;;;;22.70;12.00;;;;;;;-1.07;80.57;98025.22;5046661;28;20612;-74
2021/03/20 03:37:14;;;;;;;22.02;11.45;;;;;;;-1.11;80.87;98029.41;5046893;28;20363;-74
2021/03/20 03:39:54;;;;;;;;;;;;;;;-1.11;80.81;98028.59;5043532;28;20056;-74
2021/03/20 03:42:21;;;;;;;16.48;10.23;;;;;;;-1.12;80.80;98030.44;5051778;28;20324;-74
2021/03/20 03:44:49;;;;;;;16.98;10.00;;;;;;;-1.03;80.59;98032.88;5051759;28;20021;-74
2021/03/20 03:47:18;;;;;;;18.27;9.68;;;;;;;-1.15;80.44;98038.94;5039350;28;20449;-74
2021/03/20 03:49:44;;;;;;;18.45;10.93;;;;;;;-1.26;81.13;98036.13;5031877;28;20397;-75
2021/03/20 03:52:13;;;;;;;18.90;11.05;;;;;;;-1.17;80.99;98032.16;5031651;28;20121;-74
2021/03/20 03:54:39;;;;;;;16.88;9.90;;;;;;;-1.27;81.17;98035.31;5046487;28;20075;-75
2021/03/20 03:57:26;;;;;;;20.60;11.15;;;;;;;-1.45;81.87;98035.25;5051515;28;20029;-74
2021/03/20 04:00:10;;;;;;;19.42;10.05;;;;;;;-1.44;81.88;98034.19;5051623;28;20033;-74
2021/03/20 04:02:52;;;;;;;22.70;11.38;;;;;;;-1.47;82.55;98047.25;5051225;28;20123;-73
2021/03/20 04:05:41;;;;;;;21.17;11.80;;;;;;;-1.59;83.23;98035.53;5051410;28;20051;-74
2021/03/20 04:08:19;;;;;;;22.67;11.40;;;;;;;-1.47;82.82;98045.34;5050139;28;20082;-73
2021/03/20 04:10:58;;;;;;;17.75;11.25;;;;;;;-1.54;82.83;98049.13;5051229;28;20035;-77
2021/03/20 04:13:43;;;;;;;18.23;9.70;;;;;;;-1.65;83.26;98042.59;5051042;28;20025;-74
2021/03/20 04:16:16;;;;;;;18.23;10.38;;;;;;;-1.74;83.64;98046.56;5050212;28;20474;-75
2021/03/20 04:19:00;;;;;;;14.40;8.23;;;;;;;-1.77;83.95;98049.66;5050945;28;20397;-74
2021/03/20 04:21:46;;;;;;;15.13;9.77;;;;;;;-1.68;83.62;98048.38;5051147;28;20028;-74
2021/03/20 04:24:33;;;;;;;16.13;9.40;;;;;;;-1.63;83.32;98053.94;5033385;28;20387;-74
2021/03/20 04:27:31;;;;;;;19.20;9.15;;;;;;;-1.56;83.58;98051.19;5029866;28;20072;-74
2021/03/20 04:30:10;;;;;;;17.63;9.20;;;;;;;-1.53;83.04;98053.44;5026519;28;20084;-74
2021/03/20 04:32:42;;;;;;;14.00;8.73;;;;;;;-1.50;83.11;98050.34;5030973;28;20026;-73
2021/03/20 04:35:16;;;;;;;17.67;8.80;;;;;;;-1.43;82.65;98046.56;5030770;28;20108;-74
2021/03/20 04:37:47;;;;;;;15.95;9.00;;;;;;;-1.59;83.34;98057.81;5030229;28;20376;-74
2021/03/20 04:40:28;;;;;;;15.38;8.77;;;;;;;-1.38;82.75;98060.13;5030397;28;20033;-75
2021/03/20 04:42:55;;;;;;;14.52;8.05;;;;;;;-1.42;82.90;98061.63;5030867;28;20031;-74
2021/03/20 04:45:41;;;;;;;18.17;8.57;;;;;;;-1.43;83.05;98059.97;5030337;28;20040;-74
2021/03/20 04:48:17;;;;;;;13.55;8.85;;;;;;;-1.50;83.44;98059.19;5031100;28;20482;-74
2021/03/20 04:50:47;;;;;;;13.48;8.88;;;;;;;-1.40;83.66;98067.59;5030968;28;20060;-74
2021/03/20 04:53:14;;;;;;;15.48;8.32;;;;;;;-1.31;83.33;98068.16;5030564;28;20026;-74
2021/03/20 04:55:41;;;;;;;14.02;8.90;;;;;;;-1.35;83.69;98069.63;5030453;28;20029;-75
2021/03/20 04:58:29;;;;;;;13.77;8.35;;;;;;;-1.46;84.33;98076.50;5030546;28;20036;-74
2021/03/20 05:01:01;;;;;;;17.05;9.45;;;;;;;-1.53;84.67;98073.03;5030406;28;20817;-74
2021/03/20 05:03:28;;;;;;;12.82;8.15;;;;;;;-1.46;84.51;98075.69;5030377;28;20537;-74
2021/03/20 05:05:58;;;;;;;12.73;8.05;;;;;;;-1.42;83.94;98079.59;5030519;28;20172;-74
2021/03/20 05:08:35;;;;;;;12.20;8.45;;;;;;;-1.56;84.60;98078.81;5033169;28;20080;-74
2021/03/20 05:11:08;;;;;;;18.58;9.88;;;;;;;-1.45;84.60;98083.53;5030433;28;20033;-74
2021/03/20 05:14:02;;;;;;;11.95;8.45;;;;;;;-1.50;84.80;98094.06;5030430;28;20021;-74
2021/03/20 05:16:43;;;;;;;21.60;7.78;;;;;;;-1.38;84.68;98092.31;5035823;28;20045;-75
2021/03/20 05:19:08;;;;;;;15.98;8.52;;;;;;;-1.37;84.45;98096.66;5050658;28;20029;-74
2021/03/20 05:21:40;;;;;;;14.65;9.00;;;;;;;-1.25;83.96;98102.97;5050607;28;20032;-74
2021/03/20 05:24:08;;;;;;;14.35;8.32;;;;;;;-1.15;84.08;98097.97;5034732;28;20025;-73
2021/03/20 05:26:36;;;;;;;18.20;8.82;;;;;;;-1.07;83.79;98112.97;5030467;28;20111;-75
2021/03/20 05:29:02;;;;;;;13.90;7.60;;;;;;;-0.88;83.03;98109.34;5030429;28;20167;-75
2021/03/20 05:31:29;;;;;;;15.63;8.85;;;;;;;-0.85;82.96;98118.81;5029108;28;20033;-74
2021/03/20 05:33:57;;;;;;;13.13;8.70;;;;;;;-0.83;82.47;98116.72;5045956;28;20032;-74
2021/03/20 05:36:22;;;;;;;16.40;9.18;;;;;;;-0.74;82.26;98123.44;5050535;28;20739;-74
2021/03/20 05:38:48;;;;;;;13.82;9.55;;;;;;;-0.85;82.08;98118.81;5048031;28;20108;-74
2021/03/20 05:41:36;;;;;;;16.77;9.73;;;;;;;-0.88;82.24;98116.56;5035660;28;20175;-74
2021/03/20 05:44:07;;;;;;;22.77;10.57;;;;;;;-0.73;81.13;98127.78;5047865;28;20041;-74
2021/03/20 05:46:44;;;;;;;14.38;10.40;;;;;;;-0.75;80.58;98130.69;5041358;28;20458;-74
2021/03/20 05:49:24;;;;;;;21.60;10.88;;;;;;;-0.89;80.62;98139.88;5033996;28;20024;-73
2021/03/20 05:52:11;;;;;;;24.42;13.18;;;;;;;-0.90;80.81;98145.47;5034219;28;20037;-75
2021/03/20 05:55:04;;;;;;;19.52;11.55;;;;;;;-0.94;80.87;98146.97;5034311;28;20040;-75
2021/03/20 05:57:59;;;;;;;16.60;10.07;;;;;;;-0.69;79.94;98148.59;5033123;28;20057;-75
2021/03/20 06:00:36;;;;;;;16.98;8.88;;;;;;;-0.67;79.89;98151.06;5036380;28;20433;-74
2021/03/20 06:03:36;;;;;;;20.40;11.05;;;;;;;-0.87;80.63;98150.41;5053812;28;20025;-75
2021/03/20 06:06:34;;;;;;;19.50;11.60;;;;;;;-0.79;80.84;98158.19;5053617;28;20032;-74
2021/03/20 06:09:11;;;;;;;20.98;11.65;;;;;;;-0.67;80.05;98161.81;5053619;28;20033;-74
2021/03/20 06:12:21;;;;;;;13.88;8.90;;;;;;;-0.61;79.36;98163.63;5052010;28;20037;-74
2021/03/20 06:15:12;;;;;;;17.83;10.32;;;;;;;-0.54;78.84;98167.09;5058413;28;20033;-75
2021/03/20 06:18:31;;;;;;;16.67;10.27;;;;;;;-0.35;78.39;98163.41;5046164;28;20026;-75
2021/03/20 06:21:08;;;;;;;15.52;10.50;;;;;;;-0.31;77.93;98163.75;5031048;28;20060;-75
2021/03/20 06:23:52;;;;;;;15.45;9.27;;;;;;;-0.15;77.97;98172.09;5033290;28;20102;-74
2021/03/20 06:26:31;;;;;;;17.27;11.80;;;;;;;-0.21;77.73;98172.16;5033509;28;20047;-75
2021/03/20 06:29:02;;;;;;;17.20;9.57;;;;;;;0.07;77.18;98177.03;5033195;28;20037;-74
2021/03/20 06:31:45;;;;;;;17.42;10.95;;;;;;;-0.02;77.17;98174.66;5033431;28;20107;-75
2021/03/20 06:34:20;;;;;;;25.48;11.90;;;;;;;0.09;77.11;98180.34;5045887;28;20052;-75
2021/03/20 06:36:50;;;;;;;15.98;10.55;;;;;;;0.21;76.87;98181.25;5056372;28;20024;-74
2021/03/20 06:39:45;;;;;;;22.02;10.70;;;;;;;0.31;76.47;98184.25;5040980;28;20045;-75
2021/03/20 06:42:22;;;;;;;21.83;11.73;;;;;;;0.43;77.65;98187.81;5034445;28;20484;-73
2021/03/20 06:44:55;;;;;;;17.92;10.50;;;;;;;0.51;77.93;98187.50;5039012;28;20104;-75
2021/03/20 06:47:32;;;;;;;19.50;12.27;;;;;;;0.73;77.00;98188.66;5046262;28;20395;-74
2021/03/20 06:50:11;;;;;;;27.02;16.13;;;;;;;0.79;76.49;98197.69;5035428;28;20041;-74
2021/03/20 06:52:38;;;;;;;17.75;11.50;;;;;;;0.92;75.90;98195.66;5049915;28;20158;-74
2021/03/20 06:55:17;;;;;;;22.80;12.82;;;;;;;1.19;74.77;98195.31;5051389;28;20110;-75
2021/03/20 06:57:43;;;;;;;20.98;11.73;;;;;;;1.32;73.99;98193.22;5050765;28;20053;-73
2021/03/20 07:00:20;;;;;;;15.60;11.45;;;;;;;1.43;73.43;98191.63;5049829;28;20021;-75
2021/03/20 07:03:06;;;;;;;19.45;11.32;;;;;;;1.66;72.63;98198.94;5052333;28;20025;-75
2021/03/20 07:05:41;;;;;;;;;;;;;;;1.75;71.39;98198.34;5047842;28;20723;-75
2021/03/20 07:08:27;;;;;;;18.88;10.48;;;;;;;1.88;70.65;98205.41;5050214;28;19938;-74
2021/03/20 07:10:55;;;;;;;14.50;8.90;;;;;;;2.27;69.58;98201.16;5045798;28;20064;-74
2021/03/20 07:13:22;;;;;;;18.00;10.35;;;;;;;2.43;68.05;98198.56;5049213;28;20528;-74
2021/03/20 07:16:16;;;;;;;20.17;11.15;;;;;;;2.94;65.76;98197.72;5048346;28;20058;-76
2021/03/20 07:18:47;;;;;;;13.63;9.50;;;;;;;3.78;61.15;98202.22;5049501;28;20044;-74
2021/03/20 07:21:34;;;;;;;16.25;9.90;;;;;;;4.26;59.45;98206.22;5048630;28;20051;-74
2021/03/20 07:24:03;;;;;;;16.60;9.23;;;;;;;4.85;57.07;98210.00;5046394;28;20025;-74
2021/03/20 07:26:31;;;;;;;15.52;9.30;;;;;;;4.14;57.40;98206.28;5050832;28;20032;-74
2021/03/20 07:28:58;;;;;;;15.10;9.98;;;;;;;4.76;56.98;98211.50;5049325;28;20114;-75
2021/03/20 07:31:24;;;;;;;12.70;8.75;;;;;;;4.98;56.89;98215.00;5049906;28;20028;-75
2021/03/20 07:33:54;;;;;;;14.35;8.95;;;;;;;5.39;55.34;98214.38;5049392;28;20837;-78
2021/03/20 07:36:35;;;;;;;13.68;9.07;;;;;;;5.35;55.62;98210.56;5050856;28;20049;-74
2021/03/20 07:39:26;;;;;;;12.93;8.82;;;;;;;5.21;54.29;98225.59;5049726;28;20040;-74
2021/03/20 07:42:02;;;;;;;11.55;7.55;;;;;;;5.20;54.85;98229.34;5050735;28;20405;-76
2021/03/20 07:44:45;;;;;;;13.40;7.90;;;;;;;5.52;53.25;98228.63;5046601;28;20044;-74
2021/03/20 07:47:13;;;;;;;13.43;9.48;;;;;;;5.07;54.51;98235.19;5051420;28;20031;-74
2021/03/20 07:49:38;;;;;;;13.23;7.47;;;;;;;4.34;57.10;98230.16;5050265;28;20036;-73
2021/03/20 07:52:20;;;;;;;12.68;8.25;;;;;;;5.30;55.43;98243.03;5050252;28;20394;-75
2021/03/20 07:54:46;;;;;;;16.92;8.05;;;;;;;4.82;55.19;98237.59;5048545;28;20035;-75
2021/03/20 07:57:16;;;;;;;10.77;7.70;;;;;;;4.92;55.43;98234.97;5051558;28;20025;-74
2021/03/20 07:59:50;;;;;;;13.95;8.35;;;;;;;5.23;55.19;98242.41;5051733;28;20032;-73
2021/03/20 08:02:53;;;;;;;14.05;7.53;;;;;;;5.00;55.29;98242.69;5050576;28;20432;-74
2021/03/20 08:05:20;;;;;;;13.00;7.75;;;;;;;4.80;55.83;98237.00;5050106;28;20076;-74
2021/03/20 08:07:48;;;;;;;11.75;9.10;;;;;;;5.28;54.99;98245.19;5052343;28;20025;-73
2021/03/20 08:10:27;;;;;;;14.45;8.85;;;;;;;5.37;55.34;98246.38;5052146;28;20381;-74
2021/03/20 08:13:03;;;;;;;11.13;8.90;;;;;;;5.30;54.49;98245.75;5052663;28;20031;-75
2021/03/20 08:15:39;;;;;;;12.32;7.93;;;;;;;5.00;55.99;98250.00;5053788;28;20096;-74
2021/03/20 08:18:22;;;;;;;12.48;8.38;;;;;;;4.58;57.56;98247.00;5053058;28;20033;-75
2021/03/20 08:21:10;;;;;;;13.68;8.25;;;;;;;4.47;58.57;98248.75;5051491;28;20021;-75
2021/03/20 08:24:00;;;;;;;17.65;9.23;;;;;;;4.47;58.45;98247.94;5050079;28;20028;-74
2021/03/20 08:26:50;;;;;;;15.10;9.13;;;;;;;4.24;59.25;98247.06;5050641;28;20041;-75
2021/03/20 08:29:38;;;;;;;12.82;7.60;;;;;;;4.53;58.67;98255.88;5049583;28;20028;-75
2021/03/20 08:32:34;;;;;;;11.13;8.35;;;;;;;4.37;58.84;98254.00;5050712;28;20036;-76
2021/03/20 08:35:03;;;;;;;13.35;9.52;;;;;;;4.37;59.33;98242.34;5051548;28;20067;-78
2021/03/20 08:37:34;;;;;;;12.82;9.57;;;;;;;4.11;59.71;98252.78;5054485;28;20086;-74
2021/03/20 08:40:40;;;;;;;14.13;9.65;;;;;;;4.24;59.34;98247.06;5050432;28;20045;-76
2021/03/20 08:43:20;;;;;;;11.13;7.63;;;;;;;4.48;59.07;98246.88;5050771;28;20033;-75
2021/03/20 08:45:53;;;;;;;13.23;8.15;;;;;;;5.43;56.10;98243.72;5050429;28;20041;-75
2021/03/20 08:48:47;;;;;;;14.30;8.90;;;;;;;5.39;55.79;98248.81;5051872;28;20025;-76
2021/03/20 08:52:00;;;;;;;12.73;8.95;;;;;;;5.52;55.67;98247.59;5051000;28;20029;-74
2021/03/20 08:54:34;;;;;;;12.35;8.00;;;;;;;5.52;56.31;98253.03;5013812;28;20540;-74
2021/03/20 08:57:09;;;;;;;11.32;7.30;;;;;;;5.64;55.37;98251.00;5050032;28;20036;-74
2021/03/20 08:59:40;;;;;;;14.85;8.38;;;;;;;4.95;56.12;98242.59;5050474;28;20547;-74
2021/03/20 09:02:24;;;;;;;13.70;7.75;;;;;;;5.13;56.45;98245.03;5046832;28;20036;-74
2021/03/20 09:05:02;;;;;;;13.38;8.18;;;;;;;6.85;52.88;98238.38;5051442;28;20028;-76
2021/03/20 09:07:34;;;;;;;11.65;7.28;;;;;;;6.53;52.90;98240.34;5051064;28;20119;-76
2021/03/20 09:10:03;;;;;;;12.23;7.72;;;;;;;5.87;53.94;98246.09;5051440;28;20025;-75
2021/03/20 09:12:43;;;;;;;13.07;7.38;;;;;;;5.59;55.09;98242.78;5051795;28;20036;-76
2021/03/20 09:15:22;;;;;;;13.40;7.07;;;;;;;5.45;55.96;98241.59;5050182;28;20029;-74
2021/03/20 09:17:48;;;;;;;10.60;7.88;;;;;;;5.25;56.20;98240.28;5050867;28;20037;-75
2021/03/20 09:20:40;;;;;;;10.65;7.15;;;;;;;5.01;57.12;98235.38;5050808;28;20090;-74
2021/03/20 09:23:15;;;;;;;10.15;6.80;;;;;;;4.83;57.72;98239.22;5053101;28;20035;-75
2021/03/20 09:25:44;;;;;;;10.63;6.63;;;;;;;4.68;58.29;98241.72;5054761;28;20025;-74
2021/03/20 09:28:27;;;;;;;12.43;6.25;;;;;;;4.50;59.17;98242.00;5055058;28;20024;-75
2021/03/20 09:30:55;;;;;;;13.07;7.97;;;;;;;4.53;59.53;98233.38;5055043;28;20477;-75
2021/03/20 09:33:27;;;;;;;12.15;8.02;;;;;;;4.69;59.26;98240.66;5053674;28;20044;-74
2021/03/20 09:35:57;;;;;;;11.02;5.93;;;;;;;4.56;58.99;98233.72;5055583;28;20043;-74
2021/03/20 09:38:34;;;;;;;8.77;6.32;;;;;;;4.66;58.97;98235.75;5054718;28;20094;-74
2021/03/20 09:41:29;;;;;;;11.30;6.38;;;;;;;4.60;58.91;98231.31;5053761;28;20025;-75
2021/03/20 09:43:54;;;;;;;12.15;7.55;;;;;;;4.96;58.13;98229.88;5054966;28;20061;-74
2021/03/20 09:46:39;;;;;;;9.52;6.18;;;;;;;5.38;56.49;98236.34;5054766;28;20053;-74
2021/03/20 09:49:08;;;;;;;5.45;3.97;;;;;;;6.64;52.10;98228.47;5054924;28;20128;-75
2021/03/20 09:51:53;;;;;;;5.25;4.15;;;;;;;7.22;49.51;98225.47;5054625;28;20033;-75
2021/03/20 09:54:22;;;;;;;8.50;4.22;;;;;;;6.43;51.18;98224.78;5055683;28;20028;-75
2021/03/20 09:57:07;;;;;;;5.03;4.15;;;;;;;5.25;53.67;98232.16;5056303;28;20033;-75
2021/03/20 09:59:35;;;;;;;11.60;4.22;;;;;;;4.59;56.24;98235.91;5057267;28;20108;-76
2021/03/20 10:02:09;;;;;;;8.13;5.07;;;;;;;4.51;57.69;98230.13;5056811;28;20031;-74
2021/03/20 10:05:19;;;;;;;9.65;6.88;;;;;;;4.40;58.21;98231.03;5055439;28;20370;-74
2021/03/20 10:08:00;;;;;;;10.23;5.30;;;;;;;4.32;58.96;98222.25;5048893;28;20048;-75
2021/03/20 10:10:28;;;;;;;6.28;4.85;;;;;;;4.56;58.90;98231.00;5049557;28;20037;-74
2021/03/20 10:13:02;;;;;;;8.68;5.45;;;;;;;4.47;58.18;98227.09;5054533;28;20488;-74
2021/03/20 10:15:34;;;;;;;6.53;4.80;;;;;;;5.24;57.38;98229.69;5047156;28;20016;-75
2021/03/20 10:18:06;;;;;;;6.60;4.75;;;;;;;7.22;52.55;98227.38;5050369;28;20032;-75
2021/03/20 10:20:40;;;;;;;6.00;4.60;;;;;;;6.60;53.18;98224.63;5052621;28;20013;-74
2021/03/20 10:23:25;;;;;;;7.05;5.55;;;;;;;6.16;55.27;98233.03;5049992;28;20631;-75
2021/03/20 10:25:54;;;;;;;7.60;5.18;;;;;;;8.79;48.51;98225.53;5050087;28;20066;-75
2021/03/20 10:28:28;;;;;;;8.25;5.97;;;;;;;8.58;48.42;98220.13;5052297;28;20025;-76
2021/03/20 10:31:00;;;;;;;6.70;5.28;;;;;;;7.50;50.34;98222.28;5048971;28;20041;-74
2021/03/20 10:33:34;;;;;;;7.75;4.97;;;;;;;6.76;51.04;98219.03;5051446;28;20036;-74
2021/03/20 10:36:36;;;;;;;10.20;6.03;;;;;;;6.11;54.67;98215.91;5050027;28;20539;-75
2021/03/20 10:39:03;;;;;;;7.30;5.30;;;;;;;6.38;55.32;98209.28;5049401;28;20062;-75
2021/03/20 10:41:36;;;;;;;6.80;5.10;;;;;;;6.50;54.54;98205.53;5051289;28;20075;-74
2021/03/20 10:44:13;;;;;;;5.78;4.82;;;;;;;6.30;53.97;98201.63;5051423;28;20021;-74
2021/03/20 10:46:41;;;;;;;8.32;5.70;;;;;;;7.50;51.95;98205.94;5049892;28;20048;-75
2021/03/20 10:49:23;;;;;;;23.85;11.88;;;;;;;10.26;43.99;98198.22;5052633;28;20075;-75
2021/03/20 10:51:51;;;;;;;7.00;5.40;;;;;;;11.58;39.79;98196.41;5050595;28;20029;-75
2021/03/20 10:54:36;;;;;;;8.07;5.50;;;;;;;12.04;38.12;98193.81;5050318;28;20486;-75
2021/03/20 10:57:07;;;;;;;6.28;4.40;;;;;;;11.98;37.38;98191.44;5051401;28;20021;-74
2021/03/20 10:59:40;;;;;;;7.65;5.65;;;;;;;10.96;39.39;98202.16;5053621;28;20017;-75
2021/03/20 11:02:35;;;;;;;7.68;5.25;;;;;;;10.47;39.44;98197.75;5052706;28;20033;-75
2021/03/20 11:05:22;;;;;;;4.93;3.70;;;;;;;10.09;38.20;98193.13;5074834;28;20033;-79
2021/03/20 11:07:59;;;;;;;4.32;2.90;;;;;;;8.69;38.80;98195.56;5051814;28;20071;-74
2021/03/20 11:10:32;;;;;;;4.85;2.20;;;;;;;9.23;36.80;98199.19;5050718;28;20033;-75
2021/03/20 11:13:05;;;;;;;6.05;4.35;;;;;;;9.10;37.73;98194.34;5045195;28;20033;-74
2021/03/20 11:15:34;;;;;;;15.10;8.40;;;;;;;8.23;39.51;98187.47;5051064;28;20011;-75
2021/03/20 11:18:05;;;;;;;7.32;5.25;;;;;;;7.52;41.88;98186.63;5053019;28;20481;-74
2021/03/20 11:20:36;;;;;;;3.95;3.15;;;;;;;6.62;43.21;98178.97;5052090;28;20461;-75
2021/03/20 11:23:04;;;;;;;4.25;3.65;;;;;;;6.15;45.50;98181.69;5054410;28;20024;-75
2021/03/20 11:25:39;;;;;;;7.22;5.85;;;;;;;5.53;54.00;98200.41;5052061;28;20021;-75
2021/03/20 11:28:13;;;;;;;8.32;6.50;;;;;;;4.25;59.84;98186.44;5052403;28;20036;-75
2021/03/20 11:30:45;;;;;;;6.90;5.22;;;;;;;4.26;61.04;98185.34;5049073;28;20391;-79
2021/03/20 11:33:15;;;;;;;10.20;5.97;;;;;;;4.16;61.72;98192.53;5050845;28;20013;-75
2021/03/20 11:35:45;;;;;;;13.13;7.20;;;;;;;3.88;63.85;98198.88;5049245;28;20100;-75
2021/03/20 11:38:14;;;;;;;14.02;5.88;;;;;;;3.72;64.44;98203.22;5048181;28;20040;-75
2021/03/20 11:40:44;;;;;;;52.35;29.15;;;;;;;3.60;65.56;98198.94;5046766;28;20021;-74
2021/03/20 11:43:13;;;;;;;17.55;10.23;;;;;;;3.40;66.39;98196.69;5045799;28;20040;-75
2021/03/20 11:45:40;;;;;;;27.30;15.88;;;;;;;3.75;66.32;98196.47;5049503;28;20554;-74
2021/03/20 11:48:22;;;;;;;8.15;5.72;;;;;;;3.44;67.33;98197.84;5050265;28;20116;-74
2021/03/20 11:50:56;;;;;;;8.75;5.72;;;;;;;3.31;68.79;98202.72;5049036;28;20489;-75
2021/03/20 11:53:35;;;;;;;12.23;7.70;;;;;;;3.38;69.70;98204.22;5048319;28;20025;-74
2021/03/20 11:56:12;;;;;;;14.60;8.05;;;;;;;3.43;70.39;98206.19;5048069;28;20028;-74
2021/03/20 11:58:38;;;;;;;11.98;7.65;;;;;;;3.28;71.17;98198.63;5047722;28;20017;-74
2021/03/20 12:01:28;;;;;;;11.20;8.63;;;;;;;3.34;71.74;98202.25;5049712;28;20031;-73
2021/03/20 12:04:00;;;;;;;12.13;6.65;;;;;;;3.07;69.58;98189.31;5047161;28;20061;-74
2021/03/20 12:06:30;;;;;;;8.55;6.03;;;;;;;2.97;68.43;98191.84;5049411;28;20023;-74
2021/03/20 12:09:06;;;;;;;9.95;6.43;;;;;;;2.89;70.19;98191.38;5047620;28;20418;-74